sensor_id;sensor_type;location;lat;lon;timestamp;pressure;altitude;pressure_sealevel;temperature;humidity
74218;BME280;62579;47.288;18.646;2023-09-19T00:00:22;99322.87;;;23.19;69.17
74218;BME280;62579;47.288;18.646;2023-09-19T00:02:56;99315.75;;;23.16;69.24
74218;BME280;62579;47.288;18.646;2023-09-19T00:05:22;99316.41;;;23.05;69.88
74218;BME280;62579;47.288;18.646;2023-09-19T00:07:50;99317.28;;;23.08;69.71
74218;BME280;62579;47.288;18.646;2023-09-19T00:10:16;99325.47;;;23.06;69.84
74218;BME280;62579;47.288;18.646;2023-09-19T00:12:44;99323.56;;;23.08;69.66
74218;BME280;62579;47.288;18.646;2023-09-19T00:15:10;99317.75;;;23.04;69.98
74218;BME280;62579;47.288;18.646;2023-09-19T00:17:36;99333.47;;;23.11;69.67
74218;BME280;62579;47.288;18.646;2023-09-19T00:20:02;99321.38;;;23.07;70.00
74218;BME280;62579;47.288;18.646;2023-09-19T00:22:32;99321.63;;;23.11;69.95
74218;BME280;62579;47.288;18.646;2023-09-19T00:24:57;99320.31;;;23.12;69.87
74218;BME280;62579;47.288;18.646;2023-09-19T00:27:22;99319.34;;;23.07;70.10
74218;BME280;62579;47.288;18.646;2023-09-19T00:29:47;99317.53;;;23.12;69.96
74218;BME280;62579;47.288;18.646;2023-09-19T00:32:13;99317.53;;;23.12;70.06
74218;BME280;62579;47.288;18.646;2023-09-19T00:34:38;99317.16;;;23.06;70.36
74218;BME280;62579;47.288;18.646;2023-09-19T00:37:03;99323.94;;;23.14;70.04
74218;BME280;62579;47.288;18.646;2023-09-19T00:39:29;99319.34;;;23.07;70.29
74218;BME280;62579;47.288;18.646;2023-09-19T00:41:57;99318.00;;;23.08;70.35
74218;BME280;62579;47.288;18.646;2023-09-19T00:44:22;99322.44;;;23.02;70.70
74218;BME280;62579;47.288;18.646;2023-09-19T00:46:48;99320.53;;;23.04;70.59
74218;BME280;62579;47.288;18.646;2023-09-19T00:49:15;99318.34;;;23.03;70.77
74218;BME280;62579;47.288;18.646;2023-09-19T00:51:41;99323.84;;;22.91;71.25
74218;BME280;62579;47.288;18.646;2023-09-19T00:54:07;99320.59;;;22.95;71.18
74218;BME280;62579;47.288;18.646;2023-09-19T00:56:33;99326.53;;;22.80;71.97
74218;BME280;62579;47.288;18.646;2023-09-19T00:58:59;99333.94;;;22.87;71.56
74218;BME280;62579;47.288;18.646;2023-09-19T01:01:24;99334.94;;;22.91;71.47
74218;BME280;62579;47.288;18.646;2023-09-19T01:03:50;99329.31;;;22.80;71.98
74218;BME280;62579;47.288;18.646;2023-09-19T01:06:16;99336.13;;;22.88;71.62
74218;BME280;62579;47.288;18.646;2023-09-19T01:08:42;99325.47;;;22.85;71.80
74218;BME280;62579;47.288;18.646;2023-09-19T01:14:01;99315.44;;;22.80;72.05
74218;BME280;62579;47.288;18.646;2023-09-19T01:22:42;99305.00;;;22.68;72.79
74218;BME280;62579;47.288;18.646;2023-09-19T01:27:58;99302.53;;;22.63;72.95
74218;BME280;62579;47.288;18.646;2023-09-19T01:30:32;99303.28;;;22.63;73.08
74218;BME280;62579;47.288;18.646;2023-09-19T01:33:01;99312.16;;;22.62;73.13
74218;BME280;62579;47.288;18.646;2023-09-19T01:35:29;99315.22;;;22.66;72.99
74218;BME280;62579;47.288;18.646;2023-09-19T01:37:54;99310.31;;;22.55;73.44
74218;BME280;62579;47.288;18.646;2023-09-19T01:40:20;99315.25;;;22.56;73.41
74218;BME280;62579;47.288;18.646;2023-09-19T01:43:12;99309.16;;;22.48;73.90
74218;BME280;62579;47.288;18.646;2023-09-19T01:45:47;99304.09;;;22.45;74.25
74218;BME280;62579;47.288;18.646;2023-09-19T01:48:41;99307.28;;;22.51;73.88
74218;BME280;62579;47.288;18.646;2023-09-19T01:51:14;99306.25;;;22.46;74.68
74218;BME280;62579;47.288;18.646;2023-09-19T01:53:53;99310.22;;;22.43;74.73
74218;BME280;62579;47.288;18.646;2023-09-19T01:56:36;99306.13;;;22.44;75.13
74218;BME280;62579;47.288;18.646;2023-09-19T01:59:11;99303.59;;;22.48;75.27
74218;BME280;62579;47.288;18.646;2023-09-19T02:01:39;99302.16;;;22.47;75.27
74218;BME280;62579;47.288;18.646;2023-09-19T02:04:07;99303.94;;;22.43;75.61
74218;BME280;62579;47.288;18.646;2023-09-19T02:06:32;99294.75;;;22.40;75.55
74218;BME280;62579;47.288;18.646;2023-09-19T02:08:59;99298.13;;;22.39;75.99
74218;BME280;62579;47.288;18.646;2023-09-19T02:11:24;99303.19;;;22.21;76.74
74218;BME280;62579;47.288;18.646;2023-09-19T02:13:50;99302.88;;;22.17;77.06
74218;BME280;62579;47.288;18.646;2023-09-19T02:16:19;99308.94;;;22.04;77.86
74218;BME280;62579;47.288;18.646;2023-09-19T02:18:47;99307.81;;;21.78;78.92
74218;BME280;62579;47.288;18.646;2023-09-19T02:21:12;99311.31;;;21.69;78.96
74218;BME280;62579;47.288;18.646;2023-09-19T02:23:38;99318.91;;;21.69;78.81
74218;BME280;62579;47.288;18.646;2023-09-19T02:26:04;99309.16;;;21.58;79.31
74218;BME280;62579;47.288;18.646;2023-09-19T02:28:30;99315.13;;;21.64;79.09
74218;BME280;62579;47.288;18.646;2023-09-19T02:30:57;99318.75;;;21.76;78.01
74218;BME280;62579;47.288;18.646;2023-09-19T02:33:23;99325.31;;;21.81;77.35
74218;BME280;62579;47.288;18.646;2023-09-19T02:35:48;99321.81;;;21.80;77.19
74218;BME280;62579;47.288;18.646;2023-09-19T02:38:14;99318.19;;;21.49;79.21
74218;BME280;62579;47.288;18.646;2023-09-19T02:40:43;99309.03;;;21.37;79.87
74218;BME280;62579;47.288;18.646;2023-09-19T02:43:08;99303.38;;;21.35;79.93
74218;BME280;62579;47.288;18.646;2023-09-19T02:45:34;99304.97;;;21.38;79.64
74218;BME280;62579;47.288;18.646;2023-09-19T02:47:59;99311.50;;;21.52;78.82
74218;BME280;62579;47.288;18.646;2023-09-19T02:50:25;99317.59;;;21.60;78.20
74218;BME280;62579;47.288;18.646;2023-09-19T02:52:50;99327.81;;;21.58;78.16
74218;BME280;62579;47.288;18.646;2023-09-19T02:55:17;99321.13;;;21.51;78.56
74218;BME280;62579;47.288;18.646;2023-09-19T02:57:49;99317.91;;;21.45;78.92
74218;BME280;62579;47.288;18.646;2023-09-19T03:00:17;99309.63;;;21.45;79.08
74218;BME280;62579;47.288;18.646;2023-09-19T03:02:50;99314.13;;;21.50;78.73
74218;BME280;62579;47.288;18.646;2023-09-19T03:05:17;99310.34;;;21.45;79.13
74218;BME280;62579;47.288;18.646;2023-09-19T03:07:43;99304.81;;;21.45;79.00
74218;BME280;62579;47.288;18.646;2023-09-19T03:10:10;99317.06;;;21.42;79.24
74218;BME280;62579;47.288;18.646;2023-09-19T03:12:36;99322.00;;;21.44;79.15
74218;BME280;62579;47.288;18.646;2023-09-19T03:15:02;99321.25;;;21.43;79.21
74218;BME280;62579;47.288;18.646;2023-09-19T03:17:29;99329.87;;;21.38;79.64
74218;BME280;62579;47.288;18.646;2023-09-19T03:19:54;99322.44;;;21.40;79.31
74218;BME280;62579;47.288;18.646;2023-09-19T03:22:20;99322.00;;;21.44;79.61
74218;BME280;62579;47.288;18.646;2023-09-19T03:24:46;99319.38;;;21.46;79.44
74218;BME280;62579;47.288;18.646;2023-09-19T03:27:11;99318.19;;;21.49;78.87
74218;BME280;62579;47.288;18.646;2023-09-19T03:29:39;99327.53;;;21.53;78.40
74218;BME280;62579;47.288;18.646;2023-09-19T03:32:05;99331.03;;;21.54;78.29
74218;BME280;62579;47.288;18.646;2023-09-19T03:34:30;99332.34;;;21.53;79.24
74218;BME280;62579;47.288;18.646;2023-09-19T03:36:56;99340.66;;;21.53;78.41
74218;BME280;62579;47.288;18.646;2023-09-19T03:39:21;99336.88;;;21.29;79.13
74218;BME280;62579;47.288;18.646;2023-09-19T03:41:46;99335.84;;;21.15;80.05
74218;BME280;62579;47.288;18.646;2023-09-19T03:44:12;99334.66;;;21.09;80.48
74218;BME280;62579;47.288;18.646;2023-09-19T03:46:37;99343.56;;;21.07;80.81
74218;BME280;62579;47.288;18.646;2023-09-19T03:49:03;99341.66;;;21.10;80.94
74218;BME280;62579;47.288;18.646;2023-09-19T03:51:29;99344.81;;;21.06;81.30
74218;BME280;62579;47.288;18.646;2023-09-19T03:53:54;99332.34;;;21.15;82.18
74218;BME280;62579;47.288;18.646;2023-09-19T03:56:20;99328.41;;;21.18;82.14
74218;BME280;62579;47.288;18.646;2023-09-19T03:58:45;99336.88;;;21.10;82.82
74218;BME280;62579;47.288;18.646;2023-09-19T04:01:10;99331.31;;;21.20;82.89
74218;BME280;62579;47.288;18.646;2023-09-19T04:03:36;99333.06;;;21.25;82.36
74218;BME280;62579;47.288;18.646;2023-09-19T04:06:16;99342.84;;;21.26;81.96
74218;BME280;62579;47.288;18.646;2023-09-19T04:08:42;99346.63;;;21.30;80.93
74218;BME280;62579;47.288;18.646;2023-09-19T04:11:08;99355.78;;;21.33;80.50
74218;BME280;62579;47.288;18.646;2023-09-19T04:13:34;99356.97;;;21.39;80.12
74218;BME280;62579;47.288;18.646;2023-09-19T04:15:59;99351.72;;;21.43;79.82
74218;BME280;62579;47.288;18.646;2023-09-19T04:18:25;99355.66;;;21.40;79.61
74218;BME280;62579;47.288;18.646;2023-09-19T04:20:51;99370.94;;;21.41;79.62
74218;BME280;62579;47.288;18.646;2023-09-19T04:23:16;99359.44;;;21.45;79.17
74218;BME280;62579;47.288;18.646;2023-09-19T04:25:42;99373.88;;;21.34;79.13
74218;BME280;62579;47.288;18.646;2023-09-19T04:28:08;99370.06;;;21.20;78.88
74218;BME280;62579;47.288;18.646;2023-09-19T04:30:35;99375.87;;;21.14;79.06
74218;BME280;62579;47.288;18.646;2023-09-19T04:33:00;99372.56;;;21.16;78.55
74218;BME280;62579;47.288;18.646;2023-09-19T04:35:27;99369.88;;;20.98;79.47
74218;BME280;62579;47.288;18.646;2023-09-19T04:37:54;99376.00;;;20.97;79.58
74218;BME280;62579;47.288;18.646;2023-09-19T04:40:20;99386.72;;;20.83;80.69
74218;BME280;62579;47.288;18.646;2023-09-19T04:42:45;99392.53;;;20.78;81.09
74218;BME280;62579;47.288;18.646;2023-09-19T04:45:17;99390.66;;;20.90;80.72
74218;BME280;62579;47.288;18.646;2023-09-19T04:47:45;99405.28;;;20.64;81.82
74218;BME280;62579;47.288;18.646;2023-09-19T04:50:10;99409.19;;;20.51;81.20
74218;BME280;62579;47.288;18.646;2023-09-19T04:52:38;99420.16;;;20.42;80.37
74218;BME280;62579;47.288;18.646;2023-09-19T04:55:04;99429.03;;;20.13;80.99
74218;BME280;62579;47.288;18.646;2023-09-19T04:57:29;99431.00;;;20.03;81.01
74218;BME280;62579;47.288;18.646;2023-09-19T04:59:56;99429.22;;;19.81;81.65
74218;BME280;62579;47.288;18.646;2023-09-19T05:02:22;99431.00;;;19.86;80.67
74218;BME280;62579;47.288;18.646;2023-09-19T05:04:47;99427.59;;;19.78;80.49
74218;BME280;62579;47.288;18.646;2023-09-19T05:07:13;99426.53;;;19.91;79.54
74218;BME280;62579;47.288;18.646;2023-09-19T05:09:38;99429.16;;;19.71;80.16
74218;BME280;62579;47.288;18.646;2023-09-19T05:12:04;99428.66;;;19.83;79.93
74218;BME280;62579;47.288;18.646;2023-09-19T05:14:29;99431.91;;;19.71;80.50
74218;BME280;62579;47.288;18.646;2023-09-19T05:16:55;99436.63;;;19.61;81.08
74218;BME280;62579;47.288;18.646;2023-09-19T05:19:20;99441.41;;;19.61;80.81
74218;BME280;62579;47.288;18.646;2023-09-19T05:21:45;99442.00;;;19.59;80.92
74218;BME280;62579;47.288;18.646;2023-09-19T05:24:12;99448.88;;;19.51;81.35
74218;BME280;62579;47.288;18.646;2023-09-19T05:26:39;99449.34;;;19.40;81.94
74218;BME280;62579;47.288;18.646;2023-09-19T05:29:05;99450.50;;;19.54;81.17
74218;BME280;62579;47.288;18.646;2023-09-19T05:31:33;99440.28;;;19.47;81.52
74218;BME280;62579;47.288;18.646;2023-09-19T05:33:58;99447.09;;;19.46;81.56
74218;BME280;62579;47.288;18.646;2023-09-19T05:36:26;99448.81;;;19.41;81.41
74218;BME280;62579;47.288;18.646;2023-09-19T05:38:51;99464.41;;;19.46;81.16
74218;BME280;62579;47.288;18.646;2023-09-19T05:41:18;99455.66;;;19.33;81.42
74218;BME280;62579;47.288;18.646;2023-09-19T05:43:44;99468.28;;;19.43;81.16
74218;BME280;62579;47.288;18.646;2023-09-19T05:46:09;99461.91;;;19.33;81.63
74218;BME280;62579;47.288;18.646;2023-09-19T05:48:34;99460.91;;;19.21;82.34
74218;BME280;62579;47.288;18.646;2023-09-19T05:51:00;99468.28;;;19.18;82.71
74218;BME280;62579;47.288;18.646;2023-09-19T05:53:26;99479.72;;;19.15;82.99
74218;BME280;62579;47.288;18.646;2023-09-19T05:55:51;99473.03;;;19.01;83.49
74218;BME280;62579;47.288;18.646;2023-09-19T05:58:18;99480.59;;;19.17;83.00
74218;BME280;62579;47.288;18.646;2023-09-19T06:00:45;99478.34;;;19.06;83.31
74218;BME280;62579;47.288;18.646;2023-09-19T06:03:12;99481.88;;;18.99;83.52
74218;BME280;62579;47.288;18.646;2023-09-19T06:05:39;99476.56;;;18.94;84.37
74218;BME280;62579;47.288;18.646;2023-09-19T06:08:06;99478.09;;;18.87;85.62
74218;BME280;62579;47.288;18.646;2023-09-19T06:10:33;99481.13;;;18.74;87.21
74218;BME280;62579;47.288;18.646;2023-09-19T06:12:59;99487.72;;;18.79;87.25
74218;BME280;62579;47.288;18.646;2023-09-19T06:15:25;99501.34;;;18.69;88.41
74218;BME280;62579;47.288;18.646;2023-09-19T06:17:52;99508.78;;;18.59;89.38
74218;BME280;62579;47.288;18.646;2023-09-19T06:20:22;99511.94;;;18.55;89.67
74218;BME280;62579;47.288;18.646;2023-09-19T06:22:48;99518.78;;;18.32;92.89
74218;BME280;62579;47.288;18.646;2023-09-19T06:25:15;99527.63;;;18.30;94.25
74218;BME280;62579;47.288;18.646;2023-09-19T06:27:51;99541.09;;;18.11;96.72
74218;BME280;62579;47.288;18.646;2023-09-19T06:30:21;99541.84;;;17.96;99.00
74218;BME280;62579;47.288;18.646;2023-09-19T06:32:48;99532.38;;;17.75;100.00
74218;BME280;62579;47.288;18.646;2023-09-19T06:35:15;99542.28;;;17.70;100.00
74218;BME280;62579;47.288;18.646;2023-09-19T06:37:42;99538.63;;;17.68;100.00
74218;BME280;62579;47.288;18.646;2023-09-19T06:40:11;99541.72;;;17.79;100.00
74218;BME280;62579;47.288;18.646;2023-09-19T06:42:41;99543.00;;;17.78;100.00
74218;BME280;62579;47.288;18.646;2023-09-19T06:45:07;99542.09;;;17.91;100.00
74218;BME280;62579;47.288;18.646;2023-09-19T06:47:33;99548.53;;;17.71;100.00
74218;BME280;62579;47.288;18.646;2023-09-19T06:49:58;99549.78;;;17.85;100.00
74218;BME280;62579;47.288;18.646;2023-09-19T06:52:23;99552.75;;;17.72;100.00
74218;BME280;62579;47.288;18.646;2023-09-19T06:54:49;99568.69;;;17.73;100.00
74218;BME280;62579;47.288;18.646;2023-09-19T06:57:16;99567.94;;;17.80;100.00
74218;BME280;62579;47.288;18.646;2023-09-19T06:59:41;99577.50;;;17.57;100.00
74218;BME280;62579;47.288;18.646;2023-09-19T07:02:06;99582.06;;;17.47;100.00
74218;BME280;62579;47.288;18.646;2023-09-19T07:04:33;99590.53;;;17.56;100.00
74218;BME280;62579;47.288;18.646;2023-09-19T07:06:58;99590.34;;;17.54;100.00
74218;BME280;62579;47.288;18.646;2023-09-19T07:09:24;99590.34;;;17.54;100.00
74218;BME280;62579;47.288;18.646;2023-09-19T07:11:52;99598.44;;;17.67;100.00
74218;BME280;62579;47.288;18.646;2023-09-19T07:14:18;99597.50;;;17.80;100.00
74218;BME280;62579;47.288;18.646;2023-09-19T07:16:43;99597.16;;;17.68;100.00
74218;BME280;62579;47.288;18.646;2023-09-19T07:19:10;99607.63;;;17.77;100.00
74218;BME280;62579;47.288;18.646;2023-09-19T07:21:36;99607.41;;;17.75;100.00
74218;BME280;62579;47.288;18.646;2023-09-19T07:24:03;99612.56;;;17.64;100.00
74218;BME280;62579;47.288;18.646;2023-09-19T07:26:29;99608.53;;;17.57;100.00
74218;BME280;62579;47.288;18.646;2023-09-19T07:28:54;99611.47;;;17.74;100.00
74218;BME280;62579;47.288;18.646;2023-09-19T07:31:20;99615.31;;;17.64;100.00
74218;BME280;62579;47.288;18.646;2023-09-19T07:33:45;99629.81;;;17.79;100.00
74218;BME280;62579;47.288;18.646;2023-09-19T07:36:11;99625.22;;;17.82;100.00
74218;BME280;62579;47.288;18.646;2023-09-19T07:38:41;99624.28;;;17.87;100.00
74218;BME280;62579;47.288;18.646;2023-09-19T07:41:08;99626.13;;;17.99;100.00
74218;BME280;62579;47.288;18.646;2023-09-19T07:43:35;99631.44;;;18.05;100.00
74218;BME280;62579;47.288;18.646;2023-09-19T07:46:08;99620.78;;;18.17;100.00
74218;BME280;62579;47.288;18.646;2023-09-19T07:48:36;99635.66;;;18.06;100.00
74218;BME280;62579;47.288;18.646;2023-09-19T07:51:07;99631.97;;;18.11;100.00
74218;BME280;62579;47.288;18.646;2023-09-19T07:53:33;99636.75;;;18.03;100.00
74218;BME280;62579;47.288;18.646;2023-09-19T07:56:07;99645.19;;;18.20;100.00
74218;BME280;62579;47.288;18.646;2023-09-19T07:58:34;99639.91;;;18.07;100.00
74218;BME280;62579;47.288;18.646;2023-09-19T08:01:04;99652.19;;;18.06;100.00
74218;BME280;62579;47.288;18.646;2023-09-19T08:03:30;99658.25;;;18.12;100.00
74218;BME280;62579;47.288;18.646;2023-09-19T08:05:59;99667.41;;;17.99;100.00
74218;BME280;62579;47.288;18.646;2023-09-19T08:08:25;99657.13;;;18.00;100.00
74218;BME280;62579;47.288;18.646;2023-09-19T08:10:55;99654.41;;;17.77;100.00
74218;BME280;62579;47.288;18.646;2023-09-19T08:13:24;99664.50;;;17.75;100.00
74218;BME280;62579;47.288;18.646;2023-09-19T08:15:49;99665.41;;;17.92;100.00
74218;BME280;62579;47.288;18.646;2023-09-19T08:18:16;99683.38;;;17.86;100.00
74218;BME280;62579;47.288;18.646;2023-09-19T08:20:42;99692.38;;;17.86;100.00
74218;BME280;62579;47.288;18.646;2023-09-19T08:23:11;99691.81;;;17.73;100.00
74218;BME280;62579;47.288;18.646;2023-09-19T08:25:36;99703.22;;;17.69;100.00
74218;BME280;62579;47.288;18.646;2023-09-19T08:28:04;99718.25;;;17.83;100.00
74218;BME280;62579;47.288;18.646;2023-09-19T08:30:33;99717.72;;;17.77;100.00
74218;BME280;62579;47.288;18.646;2023-09-19T08:33:00;99712.78;;;17.91;100.00
74218;BME280;62579;47.288;18.646;2023-09-19T08:35:29;99716.63;;;17.95;100.00
74218;BME280;62579;47.288;18.646;2023-09-19T08:37:54;99720.47;;;18.00;100.00
74218;BME280;62579;47.288;18.646;2023-09-19T08:40:20;99713.50;;;17.84;100.00
74218;BME280;62579;47.288;18.646;2023-09-19T08:42:53;99699.19;;;18.00;100.00
74218;BME280;62579;47.288;18.646;2023-09-19T08:45:22;99687.41;;;18.08;100.00
74218;BME280;62579;47.288;18.646;2023-09-19T08:48:24;99681.34;;;18.24;100.00
74218;BME280;62579;47.288;18.646;2023-09-19T08:51:02;99665.00;;;18.19;100.00
74218;BME280;62579;47.288;18.646;2023-09-19T08:53:51;99665.75;;;18.19;100.00
74218;BME280;62579;47.288;18.646;2023-09-19T08:56:18;99673.81;;;18.32;100.00
74218;BME280;62579;47.288;18.646;2023-09-19T08:58:50;99676.94;;;18.29;100.00
74218;BME280;62579;47.288;18.646;2023-09-19T09:01:18;99674.53;;;18.33;100.00
74218;BME280;62579;47.288;18.646;2023-09-19T09:03:51;99664.47;;;18.20;100.00
74218;BME280;62579;47.288;18.646;2023-09-19T09:06:19;99651.41;;;18.28;100.00
74218;BME280;62579;47.288;18.646;2023-09-19T09:08:46;99652.75;;;18.12;100.00
74218;BME280;62579;47.288;18.646;2023-09-19T09:11:12;99652.91;;;18.22;100.00
74218;BME280;62579;47.288;18.646;2023-09-19T09:13:38;99653.81;;;18.24;100.00
74218;BME280;62579;47.288;18.646;2023-09-19T09:16:07;99656.19;;;18.28;100.00
74218;BME280;62579;47.288;18.646;2023-09-19T09:18:33;99661.66;;;18.43;100.00
74218;BME280;62579;47.288;18.646;2023-09-19T09:20:58;99682.44;;;18.36;100.00
74218;BME280;62579;47.288;18.646;2023-09-19T09:23:23;99683.38;;;18.31;100.00
74218;BME280;62579;47.288;18.646;2023-09-19T09:28:21;99692.34;;;18.47;100.00
74218;BME280;62579;47.288;18.646;2023-09-19T09:30:46;99697.31;;;18.41;100.00
74218;BME280;62579;47.288;18.646;2023-09-19T09:33:13;99692.72;;;18.51;100.00
74218;BME280;62579;47.288;18.646;2023-09-19T09:38:21;99684.94;;;18.72;100.00
74218;BME280;62579;47.288;18.646;2023-09-19T09:40:48;99699.28;;;18.71;100.00
74218;BME280;62579;47.288;18.646;2023-09-19T09:43:38;99696.13;;;18.82;100.00
74218;BME280;62579;47.288;18.646;2023-09-19T09:46:17;99693.47;;;18.99;100.00
74218;BME280;62579;47.288;18.646;2023-09-19T09:52:02;99682.00;;;19.17;100.00
74218;BME280;62579;47.288;18.646;2023-09-19T09:55:03;99682.78;;;19.10;100.00
74218;BME280;62579;47.288;18.646;2023-09-19T09:57:33;99688.03;;;19.24;100.00
74218;BME280;62579;47.288;18.646;2023-09-19T09:59:59;99693.34;;;19.29;100.00
74218;BME280;62579;47.288;18.646;2023-09-19T10:02:54;99690.03;;;19.31;100.00
74218;BME280;62579;47.288;18.646;2023-09-19T10:05:20;99702.75;;;19.58;100.00
74218;BME280;62579;47.288;18.646;2023-09-19T10:07:49;99694.16;;;19.54;100.00
74218;BME280;62579;47.288;18.646;2023-09-19T10:10:32;99709.19;;;19.61;100.00
74218;BME280;62579;47.288;18.646;2023-09-19T10:13:09;99706.44;;;19.61;100.00
74218;BME280;62579;47.288;18.646;2023-09-19T10:15:39;99697.25;;;19.58;100.00
74218;BME280;62579;47.288;18.646;2023-09-19T10:18:10;99710.09;;;19.63;100.00
74218;BME280;62579;47.288;18.646;2023-09-19T10:20:37;99714.75;;;19.53;100.00
74218;BME280;62579;47.288;18.646;2023-09-19T10:23:08;99717.25;;;19.66;100.00
74218;BME280;62579;47.288;18.646;2023-09-19T10:25:39;99723.06;;;19.78;99.28
74218;BME280;62579;47.288;18.646;2023-09-19T10:28:06;99718.22;;;19.86;97.92
74218;BME280;62579;47.288;18.646;2023-09-19T10:30:37;99730.28;;;19.73;98.95
74218;BME280;62579;47.288;18.646;2023-09-19T10:33:07;99732.66;;;19.77;96.99
74218;BME280;62579;47.288;18.646;2023-09-19T10:35:33;99721.31;;;19.90;96.63
74218;BME280;62579;47.288;18.646;2023-09-19T10:38:01;99733.31;;;20.10;98.16
74218;BME280;62579;47.288;18.646;2023-09-19T10:40:28;99725.72;;;20.18;94.18
74218;BME280;62579;47.288;18.646;2023-09-19T10:43:03;99729.28;;;20.53;95.64
74218;BME280;62579;47.288;18.646;2023-09-19T10:45:31;99733.84;;;20.75;89.40
74218;BME280;62579;47.288;18.646;2023-09-19T10:47:57;99735.72;;;20.89;89.84
74218;BME280;62579;47.288;18.646;2023-09-19T10:50:23;99740.72;;;21.08;90.05
74218;BME280;62579;47.288;18.646;2023-09-19T10:52:50;99735.31;;;21.10;85.67
74218;BME280;62579;47.288;18.646;2023-09-19T10:55:24;99734.37;;;21.25;85.70
74218;BME280;62579;47.288;18.646;2023-09-19T10:57:50;99716.59;;;21.45;84.41
74218;BME280;62579;47.288;18.646;2023-09-19T11:00:15;99718.00;;;21.36;83.48
74218;BME280;62579;47.288;18.646;2023-09-19T11:05:35;99712.41;;;21.80;83.48
74218;BME280;62579;47.288;18.646;2023-09-19T11:08:06;99711.25;;;21.83;81.00
74218;BME280;62579;47.288;18.646;2023-09-19T11:10:48;99716.38;;;21.87;82.64
74218;BME280;62579;47.288;18.646;2023-09-19T11:13:29;99715.22;;;21.90;79.87
74218;BME280;62579;47.288;18.646;2023-09-19T11:16:03;99713.59;;;21.87;77.83
74218;BME280;62579;47.288;18.646;2023-09-19T11:26:50;99716.63;;;22.27;80.79
74218;BME280;62579;47.288;18.646;2023-09-19T11:31:52;99707.47;;;22.44;76.36
74218;BME280;62579;47.288;18.646;2023-09-19T11:34:46;99710.56;;;22.48;77.87
74218;BME280;62579;47.288;18.646;2023-09-19T11:40:06;99706.16;;;22.54;77.09
74218;BME280;62579;47.288;18.646;2023-09-19T11:42:48;99709.56;;;22.72;73.64
74218;BME280;62579;47.288;18.646;2023-09-19T11:48:18;99691.47;;;22.71;70.95
74218;BME280;62579;47.288;18.646;2023-09-19T11:50:44;99702.50;;;22.52;73.36
74218;BME280;62579;47.288;18.646;2023-09-19T11:53:11;99691.59;;;22.73;nan
74218;BME280;62579;47.288;18.646;2023-09-19T11:55:39;99698.47;;;22.72;71.82
74218;BME280;62579;47.288;18.646;2023-09-19T11:58:07;99697.75;;;22.71;72.24
74218;BME280;62579;47.288;18.646;2023-09-19T12:00:34;99702.38;;;22.59;71.90
74218;BME280;62579;47.288;18.646;2023-09-19T12:03:05;99701.09;;;22.80;72.09
74218;BME280;62579;47.288;18.646;2023-09-19T12:05:33;99696.72;;;22.96;72.09
74218;BME280;62579;47.288;18.646;2023-09-19T12:07:59;99705.00;;;23.05;69.04
74218;BME280;62579;47.288;18.646;2023-09-19T12:10:24;99696.22;;;23.18;68.99
74218;BME280;62579;47.288;18.646;2023-09-19T12:12:50;99710.25;;;23.11;67.98
74218;BME280;62579;47.288;18.646;2023-09-19T12:15:23;99698.44;;;23.01;68.95
74218;BME280;62579;47.288;18.646;2023-09-19T12:17:54;99704.16;;;22.74;68.48
74218;BME280;62579;47.288;18.646;2023-09-19T12:20:19;99705.03;;;22.96;68.77
74218;BME280;62579;47.288;18.646;2023-09-19T12:22:46;99700.34;;;22.89;67.00
74218;BME280;62579;47.288;18.646;2023-09-19T12:25:13;99700.06;;;23.04;68.31
74218;BME280;62579;47.288;18.646;2023-09-19T12:27:48;99705.09;;;23.36;66.79
74218;BME280;62579;47.288;18.646;2023-09-19T12:30:27;99696.44;;;23.51;67.60
74218;BME280;62579;47.288;18.646;2023-09-19T12:32:52;99694.09;;;23.57;64.05
74218;BME280;62579;47.288;18.646;2023-09-19T12:35:28;99693.47;;;23.68;65.35
74218;BME280;62579;47.288;18.646;2023-09-19T12:37:55;99691.56;;;23.71;64.67
74218;BME280;62579;47.288;18.646;2023-09-19T12:40:22;99692.50;;;23.54;64.57
74218;BME280;62579;47.288;18.646;2023-09-19T12:42:53;99696.28;;;23.59;64.34
74218;BME280;62579;47.288;18.646;2023-09-19T12:45:20;99694.47;;;23.73;65.06
74218;BME280;62579;47.288;18.646;2023-09-19T12:48:24;99691.69;;;24.04;63.46
74218;BME280;62579;47.288;18.646;2023-09-19T12:51:10;99691.34;;;24.19;62.33
74218;BME280;62579;47.288;18.646;2023-09-19T12:53:45;99701.72;;;24.18;64.79
74218;BME280;62579;47.288;18.646;2023-09-19T12:56:15;99699.16;;;24.32;63.21
74218;BME280;62579;47.288;18.646;2023-09-19T12:58:57;99702.75;;;24.44;60.01
74218;BME280;62579;47.288;18.646;2023-09-19T13:01:24;99695.50;;;24.29;61.48
74218;BME280;62579;47.288;18.646;2023-09-19T13:04:22;99694.97;;;24.42;61.52
74218;BME280;62579;47.288;18.646;2023-09-19T13:06:54;99694.53;;;24.46;60.60
74218;BME280;62579;47.288;18.646;2023-09-19T13:09:27;99699.53;;;24.59;61.05
74218;BME280;62579;47.288;18.646;2023-09-19T13:15:10;99694.84;;;24.19;62.45
74218;BME280;62579;47.288;18.646;2023-09-19T13:17:48;99689.75;;;24.16;62.21
74218;BME280;62579;47.288;18.646;2023-09-19T13:20:26;99693.53;;;24.41;61.24
74218;BME280;62579;47.288;18.646;2023-09-19T13:22:57;99694.13;;;24.40;60.05
74218;BME280;62579;47.288;18.646;2023-09-19T13:25:31;99702.84;;;23.94;61.58
74218;BME280;62579;47.288;18.646;2023-09-19T13:27:58;99695.22;;;23.73;61.51
74218;BME280;62579;47.288;18.646;2023-09-19T13:30:26;99687.87;;;24.09;61.07
74218;BME280;62579;47.288;18.646;2023-09-19T13:33:10;99692.22;;;23.90;61.48
74218;BME280;62579;47.288;18.646;2023-09-19T13:35:37;99703.25;;;23.69;63.90
74218;BME280;62579;47.288;18.646;2023-09-19T13:38:06;99698.31;;;23.99;62.35